Time;durP1;ratioP1;P1;durP2;ratioP2;P2;SDS_P1;SDS_P2;PMS_P1;PMS_P2;Temp;Humidity;BMP_temperature;BMP_pressure;BME280_temperature;BME280_humidity;BME280_pressure;Samples;Min_cycle;Max_cycle;Signal;HPM_P1;HPM_P2
2021/06/21 00:10:51;;;;;;;6.25;3.83;;;;;;;25.50;47.57;99707.77;22262004;77;99529;-83
2021/06/21 00:40:52;;;;;;;7.90;4.20;;;;;;;25.00;49.46;99699.29;22168477;78;99449;-83
2021/06/21 01:10:56;;;;;;;7.03;4.12;;;;;;;24.57;51.12;99677.72;21959474;79;99389;-83
2021/06/21 01:41:01;;;;;;;7.40;4.05;;;;;;;24.15;52.41;99693.53;22070111;78;99143;-82
2021/06/21 02:11:03;;;;;;;8.65;4.40;;;;;;;23.76;53.46;99695.53;22234522;78;99317;-82
2021/06/21 02:41:04;;;;;;;8.43;5.17;;;;;;;23.35;55.04;99679.68;22151300;77;99552;-84
2021/06/21 03:11:08;;;;;;;9.70;5.85;;;;;;;22.91;56.67;99687.17;21958238;78;99384;-83
2021/06/21 03:41:09;;;;;;;10.07;6.33;;;;;;;22.38;59.45;99703.02;22006462;78;99131;-83
2021/06/21 04:11:10;;;;;;;10.30;6.77;;;;;;;22.34;61.47;99698.23;22148669;78;101406;-84
2021/06/21 04:41:11;;;;;;;23.00;8.63;;;;;;;22.64;61.89;99706.36;22143627;77;100100;-81
2021/06/21 05:11:13;;;;;;;16.02;7.50;;;;;;;23.10;62.54;99715.27;22227656;78;99812;-83
2021/06/21 06:03:54;;;;;;;48.78;11.38;;;;;;;27.26;56.05;99671.03;21328440;79;41548;-73
2021/06/21 06:33:57;;;;;;;13.10;6.00;;;;;;;29.17;51.73;99658.14;21174059;82;99535;-74
2021/06/21 07:03:58;;;;;;;12.05;6.42;;;;;;;31.03;47.59;99632.33;21321880;81;99562;-73
2021/06/21 07:34:00;;;;;;;12.78;6.95;;;;;;;31.98;45.62;99631.86;21206251;81;99657;-74
2021/06/21 08:04:02;;;;;;;13.88;5.80;;;;;;;33.45;42.23;99627.36;21099154;81;99381;-75
2021/06/21 08:34:03;;;;;;;8.18;4.65;;;;;;;35.05;37.18;99611.11;21652144;80;99800;-74
2021/06/21 09:04:07;;;;;;;11.48;5.25;;;;;;;36.41;35.32;99620.13;21887331;79;99398;-74
2021/06/21 09:34:17;;;;;;;14.70;5.67;;;;;;;37.91;31.78;99623.23;21899050;79;99625;-75
2021/06/21 10:04:25;;;;;;;13.60;5.42;;;;;;;39.64;30.25;99610.73;21891017;79;99612;-74
2021/06/21 10:34:27;;;;;;;10.95;4.87;;;;;;;39.33;29.37;99575.76;21737027;79;99630;-72
2021/06/21 11:04:39;;;;;;;5.95;4.45;;;;;;;39.88;27.67;99568.02;21604480;79;99524;-75
2021/06/21 11:34:56;;;;;;;9.60;4.75;;;;;;;39.75;26.76;99532.41;21594155;79;99452;-75
2021/06/21 12:04:58;;;;;;;11.95;4.85;;;;;;;39.55;25.74;99499.09;21356992;80;99458;-75
2021/06/21 12:35:00;;;;;;;7.65;5.28;;;;;;;40.31;24.39;99495.72;21404707;81;99462;-74
2021/06/21 13:05:10;;;;;;;8.75;5.40;;;;;;;39.93;24.31;99461.78;21636628;80;99102;-74
2021/06/21 13:35:14;;;;;;;8.23;5.20;;;;;;;39.56;25.29;99458.09;21573908;80;99470;-75
2021/06/21 14:05:15;;;;;;;14.10;6.20;;;;;;;38.77;25.60;99486.16;21092554;81;99461;-76
2021/06/21 14:35:16;;;;;;;34.50;8.65;;;;;;;37.52;26.46;99471.86;21365471;80;99443;-76
2021/06/21 15:05:19;;;;;;;9.28;5.92;;;;;;;36.75;27.16;99472.12;21204852;81;99170;-75
2021/06/21 15:35:24;;;;;;;16.57;7.53;;;;;;;35.83;27.98;99448.45;21183007;81;99558;-75
2021/06/21 16:05:30;;;;;;;18.62;6.80;;;;;;;34.48;32.87;99466.73;21201110;82;99626;-75
2021/06/21 16:35:31;;;;;;;14.50;6.83;;;;;;;33.37;36.25;99483.20;21189294;82;99159;-89
2021/06/21 17:05:34;;;;;;;12.95;8.38;;;;;;;32.55;37.66;99523.52;21201414;82;99321;-87
2021/06/21 17:35:35;;;;;;;15.20;10.32;;;;;;;31.05;41.93;99560.73;21281448;82;99845;-86
2021/06/21 18:05:37;;;;;;;20.90;11.15;;;;;;;30.59;44.30;99532.00;20599701;82;99690;-86
2021/06/21 18:35:39;;;;;;;18.53;12.60;;;;;;;30.03;46.54;99541.64;20561028;83;99518;-85
2021/06/21 19:05:40;;;;;;;19.17;13.35;;;;;;;29.20;49.03;99538.70;20597560;82;99754;-85
2021/06/21 19:35:45;;;;;;;17.45;13.90;;;;;;;28.23;52.33;99535.11;20921044;83;99758;-85
2021/06/21 20:05:48;;;;;;;18.00;14.18;;;;;;;27.49;54.81;99585.80;21194713;81;99725;-85
2021/06/21 20:35:57;;;;;;;20.40;11.65;;;;;;;27.11;55.33;99604.83;21193543;82;99712;-84
2021/06/21 21:05:54;;;;;;;15.72;11.45;;;;;;;26.56;56.13;99613.08;21186758;82;99731;-83
2021/06/21 21:35:55;;;;;;;22.27;12.82;;;;;;;25.96;57.36;99585.84;21160435;83;99828;-84
2021/06/21 22:05:56;;;;;;;17.98;10.88;;;;;;;25.43;59.11;99598.30;21198382;82;99642;-78
2021/06/21 22:35:57;;;;;;;17.17;12.75;;;;;;;24.52;62.93;99593.36;21193428;82;99763;-78
2021/06/21 23:05:58;;;;;;;16.23;12.53;;;;;;;23.87;64.73;99599.52;20806495;83;99963;-83
2021/06/21 23:35:59;;;;;;;19.92;15.85;;;;;;;23.37;67.39;99588.08;20693674;83;99872;-82
